sensor_id;sensor_type;location;lat;lon;timestamp;P1;durP1;ratioP1;P2;durP2;ratioP2
26574;SDS011;67165;50.256;10.978;2023-03-14T00:01:18;3.83;;;2.80;;
26574;SDS011;67165;50.256;10.978;2023-03-14T00:03:47;5.88;;;3.25;;
26574;SDS011;67165;50.256;10.978;2023-03-14T00:06:13;3.38;;;2.30;;
26574;SDS011;67165;50.256;10.978;2023-03-14T00:08:40;5.88;;;2.35;;
26574;SDS011;67165;50.256;10.978;2023-03-14T00:11:07;4.45;;;2.08;;
26574;SDS011;67165;50.256;10.978;2023-03-14T00:13:35;5.88;;;2.35;;
26574;SDS011;67165;50.256;10.978;2023-03-14T00:16:05;4.50;;;2.33;;
26574;SDS011;67165;50.256;10.978;2023-03-14T00:18:32;6.43;;;2.20;;
26574;SDS011;67165;50.256;10.978;2023-03-14T00:20:59;3.22;;;1.92;;
26574;SDS011;67165;50.256;10.978;2023-03-14T00:23:26;4.93;;;2.05;;
26574;SDS011;67165;50.256;10.978;2023-03-14T00:25:53;3.08;;;1.90;;
26574;SDS011;67165;50.256;10.978;2023-03-14T00:28:22;2.30;;;1.80;;
26574;SDS011;67165;50.256;10.978;2023-03-14T00:30:48;3.25;;;1.58;;
26574;SDS011;67165;50.256;10.978;2023-03-14T00:33:14;2.55;;;1.70;;
26574;SDS011;67165;50.256;10.978;2023-03-14T00:35:39;2.80;;;1.70;;
26574;SDS011;67165;50.256;10.978;2023-03-14T00:38:05;3.03;;;1.73;;
26574;SDS011;67165;50.256;10.978;2023-03-14T00:40:30;3.97;;;1.60;;
26574;SDS011;67165;50.256;10.978;2023-03-14T00:42:56;3.10;;;1.42;;
26574;SDS011;67165;50.256;10.978;2023-03-14T00:45:21;2.85;;;1.60;;
26574;SDS011;67165;50.256;10.978;2023-03-14T00:47:47;3.05;;;1.55;;
26574;SDS011;67165;50.256;10.978;2023-03-14T00:50:13;1.90;;;1.40;;
26574;SDS011;67165;50.256;10.978;2023-03-14T00:52:38;2.47;;;1.40;;
26574;SDS011;67165;50.256;10.978;2023-03-14T00:55:04;2.88;;;1.58;;
26574;SDS011;67165;50.256;10.978;2023-03-14T00:57:30;1.48;;;1.25;;
26574;SDS011;67165;50.256;10.978;2023-03-14T00:59:56;3.95;;;1.30;;
26574;SDS011;67165;50.256;10.978;2023-03-14T01:02:21;2.42;;;1.27;;
26574;SDS011;67165;50.256;10.978;2023-03-14T01:04:48;2.60;;;1.40;;
26574;SDS011;67165;50.256;10.978;2023-03-14T01:07:14;1.88;;;1.38;;
26574;SDS011;67165;50.256;10.978;2023-03-14T01:09:39;1.73;;;1.25;;
26574;SDS011;67165;50.256;10.978;2023-03-14T01:12:05;1.95;;;1.15;;
26574;SDS011;67165;50.256;10.978;2023-03-14T01:14:31;1.80;;;1.10;;
26574;SDS011;67165;50.256;10.978;2023-03-14T01:16:56;3.13;;;1.20;;
26574;SDS011;67165;50.256;10.978;2023-03-14T01:19:26;1.75;;;1.15;;
26574;SDS011;67165;50.256;10.978;2023-03-14T01:21:52;1.92;;;1.13;;
26574;SDS011;67165;50.256;10.978;2023-03-14T01:24:18;3.05;;;1.00;;
26574;SDS011;67165;50.256;10.978;2023-03-14T01:26:45;1.25;;;1.13;;
26574;SDS011;67165;50.256;10.978;2023-03-14T01:29:11;2.55;;;1.50;;
26574;SDS011;67165;50.256;10.978;2023-03-14T01:31:37;4.18;;;1.20;;
26574;SDS011;67165;50.256;10.978;2023-03-14T01:34:02;3.70;;;1.30;;
26574;SDS011;67165;50.256;10.978;2023-03-14T01:36:28;1.45;;;1.10;;
26574;SDS011;67165;50.256;10.978;2023-03-14T01:38:54;1.70;;;1.30;;
26574;SDS011;67165;50.256;10.978;2023-03-14T01:41:20;1.73;;;0.93;;
26574;SDS011;67165;50.256;10.978;2023-03-14T01:43:48;2.10;;;1.00;;
26574;SDS011;67165;50.256;10.978;2023-03-14T01:48:48;1.85;;;1.10;;
26574;SDS011;67165;50.256;10.978;2023-03-14T01:51:16;1.85;;;1.10;;
26574;SDS011;67165;50.256;10.978;2023-03-14T01:53:46;1.40;;;1.00;;
26574;SDS011;67165;50.256;10.978;2023-03-14T01:56:14;2.33;;;1.20;;
26574;SDS011;67165;50.256;10.978;2023-03-14T01:58:43;2.25;;;1.00;;
26574;SDS011;67165;50.256;10.978;2023-03-14T02:01:12;1.30;;;1.02;;
26574;SDS011;67165;50.256;10.978;2023-03-14T02:03:52;3.72;;;1.10;;
26574;SDS011;67165;50.256;10.978;2023-03-14T02:06:21;3.65;;;1.15;;
26574;SDS011;67165;50.256;10.978;2023-03-14T02:08:50;1.30;;;1.10;;
26574;SDS011;67165;50.256;10.978;2023-03-14T02:11:17;1.67;;;1.00;;
26574;SDS011;67165;50.256;10.978;2023-03-14T02:13:43;2.10;;;1.00;;
26574;SDS011;67165;50.256;10.978;2023-03-14T02:16:09;2.22;;;1.00;;
26574;SDS011;67165;50.256;10.978;2023-03-14T02:18:35;0.93;;;0.88;;
26574;SDS011;67165;50.256;10.978;2023-03-14T02:21:19;1.33;;;1.00;;
26574;SDS011;67165;50.256;10.978;2023-03-14T02:29:01;2.80;;;1.30;;
26574;SDS011;67165;50.256;10.978;2023-03-14T02:31:27;2.38;;;1.00;;
26574;SDS011;67165;50.256;10.978;2023-03-14T02:33:53;2.20;;;0.98;;
26574;SDS011;67165;50.256;10.978;2023-03-14T02:36:19;4.28;;;1.17;;
26574;SDS011;67165;50.256;10.978;2023-03-14T02:38:58;3.58;;;1.00;;
26574;SDS011;67165;50.256;10.978;2023-03-14T02:41:26;1.23;;;0.77;;
26574;SDS011;67165;50.256;10.978;2023-03-14T02:43:51;2.88;;;1.10;;
26574;SDS011;67165;50.256;10.978;2023-03-14T02:46:18;1.98;;;1.05;;
26574;SDS011;67165;50.256;10.978;2023-03-14T02:48:50;2.08;;;1.13;;
26574;SDS011;67165;50.256;10.978;2023-03-14T02:51:21;1.38;;;1.10;;
26574;SDS011;67165;50.256;10.978;2023-03-14T02:53:47;4.20;;;1.08;;
26574;SDS011;67165;50.256;10.978;2023-03-14T02:56:13;1.70;;;1.08;;
26574;SDS011;67165;50.256;10.978;2023-03-14T02:58:38;2.47;;;1.13;;
26574;SDS011;67165;50.256;10.978;2023-03-14T03:01:04;2.50;;;1.10;;
26574;SDS011;67165;50.256;10.978;2023-03-14T03:03:30;2.53;;;1.20;;
26574;SDS011;67165;50.256;10.978;2023-03-14T03:05:56;2.50;;;1.08;;
26574;SDS011;67165;50.256;10.978;2023-03-14T03:08:23;4.30;;;1.35;;
26574;SDS011;67165;50.256;10.978;2023-03-14T03:10:51;4.20;;;1.30;;
26574;SDS011;67165;50.256;10.978;2023-03-14T03:13:17;3.80;;;1.40;;
26574;SDS011;67165;50.256;10.978;2023-03-14T03:15:43;2.97;;;1.10;;
26574;SDS011;67165;50.256;10.978;2023-03-14T03:18:09;3.00;;;1.25;;
26574;SDS011;67165;50.256;10.978;2023-03-14T03:20:35;2.38;;;1.48;;
26574;SDS011;67165;50.256;10.978;2023-03-14T03:23:01;5.88;;;1.60;;
26574;SDS011;67165;50.256;10.978;2023-03-14T03:25:27;5.38;;;1.67;;
26574;SDS011;67165;50.256;10.978;2023-03-14T03:27:53;11.63;;;1.55;;
26574;SDS011;67165;50.256;10.978;2023-03-14T03:30:18;2.97;;;1.50;;
26574;SDS011;67165;50.256;10.978;2023-03-14T03:32:44;2.03;;;0.90;;
26574;SDS011;67165;50.256;10.978;2023-03-14T03:35:10;2.70;;;0.93;;
26574;SDS011;67165;50.256;10.978;2023-03-14T03:37:36;3.13;;;0.98;;
26574;SDS011;67165;50.256;10.978;2023-03-14T03:40:02;3.00;;;1.05;;
26574;SDS011;67165;50.256;10.978;2023-03-14T03:42:32;6.30;;;1.35;;
26574;SDS011;67165;50.256;10.978;2023-03-14T03:44:59;5.47;;;1.60;;
26574;SDS011;67165;50.256;10.978;2023-03-14T03:47:25;3.63;;;1.08;;
26574;SDS011;67165;50.256;10.978;2023-03-14T03:49:51;4.78;;;1.50;;
26574;SDS011;67165;50.256;10.978;2023-03-14T03:52:17;2.47;;;1.17;;
26574;SDS011;67165;50.256;10.978;2023-03-14T03:54:43;4.60;;;1.30;;
26574;SDS011;67165;50.256;10.978;2023-03-14T03:57:08;2.83;;;1.08;;
26574;SDS011;67165;50.256;10.978;2023-03-14T03:59:34;2.75;;;1.10;;
26574;SDS011;67165;50.256;10.978;2023-03-14T04:02:00;2.88;;;1.02;;
26574;SDS011;67165;50.256;10.978;2023-03-14T04:04:25;5.25;;;1.30;;
26574;SDS011;67165;50.256;10.978;2023-03-14T04:06:51;4.20;;;1.10;;
26574;SDS011;67165;50.256;10.978;2023-03-14T04:09:17;5.78;;;1.40;;
26574;SDS011;67165;50.256;10.978;2023-03-14T04:11:42;5.82;;;1.10;;
26574;SDS011;67165;50.256;10.978;2023-03-14T04:14:08;4.07;;;1.20;;
26574;SDS011;67165;50.256;10.978;2023-03-14T04:16:34;5.18;;;1.30;;
26574;SDS011;67165;50.256;10.978;2023-03-14T04:19:00;3.22;;;1.40;;
26574;SDS011;67165;50.256;10.978;2023-03-14T04:21:26;4.63;;;1.17;;
26574;SDS011;67165;50.256;10.978;2023-03-14T04:23:52;5.75;;;1.58;;
26574;SDS011;67165;50.256;10.978;2023-03-14T04:26:18;4.90;;;1.40;;
26574;SDS011;67165;50.256;10.978;2023-03-14T04:28:44;5.10;;;1.40;;
26574;SDS011;67165;50.256;10.978;2023-03-14T04:31:10;5.78;;;1.45;;
26574;SDS011;67165;50.256;10.978;2023-03-14T04:33:37;3.47;;;1.35;;
26574;SDS011;67165;50.256;10.978;2023-03-14T04:36:04;4.55;;;1.38;;
26574;SDS011;67165;50.256;10.978;2023-03-14T04:38:30;2.30;;;1.23;;
26574;SDS011;67165;50.256;10.978;2023-03-14T04:40:57;6.00;;;1.20;;
26574;SDS011;67165;50.256;10.978;2023-03-14T04:43:22;2.70;;;1.10;;
26574;SDS011;67165;50.256;10.978;2023-03-14T04:45:48;6.25;;;1.20;;
26574;SDS011;67165;50.256;10.978;2023-03-14T04:48:14;3.97;;;1.25;;
26574;SDS011;67165;50.256;10.978;2023-03-14T04:50:39;4.22;;;1.20;;
26574;SDS011;67165;50.256;10.978;2023-03-14T04:53:05;3.63;;;1.30;;
26574;SDS011;67165;50.256;10.978;2023-03-14T04:55:31;3.88;;;1.17;;
26574;SDS011;67165;50.256;10.978;2023-03-14T04:57:58;3.53;;;1.33;;
26574;SDS011;67165;50.256;10.978;2023-03-14T05:00:24;6.07;;;1.50;;
26574;SDS011;67165;50.256;10.978;2023-03-14T05:02:49;2.53;;;1.02;;
26574;SDS011;67165;50.256;10.978;2023-03-14T05:05:15;2.58;;;0.98;;
26574;SDS011;67165;50.256;10.978;2023-03-14T05:07:41;2.35;;;1.10;;
26574;SDS011;67165;50.256;10.978;2023-03-14T05:10:07;3.72;;;1.38;;
26574;SDS011;67165;50.256;10.978;2023-03-14T05:12:34;3.40;;;1.30;;
26574;SDS011;67165;50.256;10.978;2023-03-14T05:14:59;2.33;;;1.27;;
26574;SDS011;67165;50.256;10.978;2023-03-14T05:17:25;5.35;;;1.50;;
26574;SDS011;67165;50.256;10.978;2023-03-14T05:19:51;4.15;;;1.10;;
26574;SDS011;67165;50.256;10.978;2023-03-14T05:22:17;5.10;;;1.25;;
26574;SDS011;67165;50.256;10.978;2023-03-14T05:24:43;5.10;;;1.55;;
26574;SDS011;67165;50.256;10.978;2023-03-14T05:27:08;2.88;;;1.30;;
26574;SDS011;67165;50.256;10.978;2023-03-14T05:29:34;3.28;;;1.42;;
26574;SDS011;67165;50.256;10.978;2023-03-14T05:32:00;4.40;;;1.67;;
26574;SDS011;67165;50.256;10.978;2023-03-14T05:34:25;3.05;;;1.80;;
26574;SDS011;67165;50.256;10.978;2023-03-14T05:36:51;5.80;;;1.60;;
26574;SDS011;67165;50.256;10.978;2023-03-14T05:39:17;5.60;;;1.73;;
26574;SDS011;67165;50.256;10.978;2023-03-14T05:41:42;7.13;;;1.80;;
26574;SDS011;67165;50.256;10.978;2023-03-14T05:44:08;4.10;;;1.98;;
26574;SDS011;67165;50.256;10.978;2023-03-14T05:46:34;4.65;;;1.73;;
26574;SDS011;67165;50.256;10.978;2023-03-14T05:48:59;4.75;;;1.50;;
26574;SDS011;67165;50.256;10.978;2023-03-14T05:51:25;5.88;;;1.40;;
26574;SDS011;67165;50.256;10.978;2023-03-14T05:53:51;3.47;;;1.20;;
26574;SDS011;67165;50.256;10.978;2023-03-14T05:56:17;5.07;;;1.50;;
26574;SDS011;67165;50.256;10.978;2023-03-14T05:58:42;4.88;;;1.85;;
26574;SDS011;67165;50.256;10.978;2023-03-14T06:01:08;4.38;;;1.48;;
26574;SDS011;67165;50.256;10.978;2023-03-14T06:03:34;3.70;;;1.10;;
26574;SDS011;67165;50.256;10.978;2023-03-14T06:06:00;4.00;;;1.88;;
26574;SDS011;67165;50.256;10.978;2023-03-14T06:08:25;3.63;;;1.17;;
26574;SDS011;67165;50.256;10.978;2023-03-14T06:10:52;4.53;;;1.42;;
26574;SDS011;67165;50.256;10.978;2023-03-14T06:13:18;2.63;;;1.30;;
26574;SDS011;67165;50.256;10.978;2023-03-14T06:15:43;5.60;;;1.63;;
26574;SDS011;67165;50.256;10.978;2023-03-14T06:18:09;6.45;;;1.50;;
26574;SDS011;67165;50.256;10.978;2023-03-14T06:20:38;5.43;;;1.50;;
26574;SDS011;67165;50.256;10.978;2023-03-14T06:23:04;6.35;;;1.75;;
26574;SDS011;67165;50.256;10.978;2023-03-14T06:25:31;4.55;;;1.80;;
26574;SDS011;67165;50.256;10.978;2023-03-14T06:27:57;6.93;;;2.00;;
26574;SDS011;67165;50.256;10.978;2023-03-14T06:30:22;4.63;;;1.75;;
26574;SDS011;67165;50.256;10.978;2023-03-14T06:32:48;3.97;;;1.67;;
26574;SDS011;67165;50.256;10.978;2023-03-14T06:35:14;4.63;;;1.58;;
26574;SDS011;67165;50.256;10.978;2023-03-14T06:37:40;8.35;;;1.67;;
26574;SDS011;67165;50.256;10.978;2023-03-14T06:40:05;4.05;;;1.38;;
26574;SDS011;67165;50.256;10.978;2023-03-14T06:42:32;3.70;;;1.15;;
26574;SDS011;67165;50.256;10.978;2023-03-14T06:44:58;3.50;;;1.40;;
26574;SDS011;67165;50.256;10.978;2023-03-14T06:47:23;6.00;;;1.65;;
26574;SDS011;67165;50.256;10.978;2023-03-14T06:49:49;6.43;;;1.60;;
26574;SDS011;67165;50.256;10.978;2023-03-14T06:52:15;4.95;;;1.20;;
26574;SDS011;67165;50.256;10.978;2023-03-14T06:54:41;4.93;;;1.48;;
26574;SDS011;67165;50.256;10.978;2023-03-14T06:57:06;4.47;;;1.50;;
26574;SDS011;67165;50.256;10.978;2023-03-14T06:59:32;3.15;;;1.20;;
26574;SDS011;67165;50.256;10.978;2023-03-14T07:01:57;5.03;;;1.52;;
26574;SDS011;67165;50.256;10.978;2023-03-14T07:04:23;6.25;;;1.60;;
26574;SDS011;67165;50.256;10.978;2023-03-14T07:06:51;3.70;;;1.45;;
26574;SDS011;67165;50.256;10.978;2023-03-14T07:09:16;4.15;;;1.13;;
26574;SDS011;67165;50.256;10.978;2023-03-14T07:11:42;3.45;;;1.25;;
26574;SDS011;67165;50.256;10.978;2023-03-14T07:14:08;3.53;;;1.30;;
26574;SDS011;67165;50.256;10.978;2023-03-14T07:16:34;7.47;;;1.58;;
26574;SDS011;67165;50.256;10.978;2023-03-14T07:19:00;4.97;;;1.60;;
26574;SDS011;67165;50.256;10.978;2023-03-14T07:21:26;2.45;;;1.33;;
26574;SDS011;67165;50.256;10.978;2023-03-14T07:23:52;4.22;;;1.60;;
26574;SDS011;67165;50.256;10.978;2023-03-14T07:26:18;4.43;;;1.50;;
26574;SDS011;67165;50.256;10.978;2023-03-14T07:28:44;3.88;;;1.23;;
26574;SDS011;67165;50.256;10.978;2023-03-14T07:31:09;5.40;;;1.20;;
26574;SDS011;67165;50.256;10.978;2023-03-14T07:33:35;2.85;;;1.15;;
26574;SDS011;67165;50.256;10.978;2023-03-14T07:36:01;4.57;;;1.30;;
26574;SDS011;67165;50.256;10.978;2023-03-14T07:38:27;3.30;;;1.30;;
26574;SDS011;67165;50.256;10.978;2023-03-14T07:40:59;2.67;;;1.23;;
26574;SDS011;67165;50.256;10.978;2023-03-14T07:43:26;3.17;;;1.27;;
26574;SDS011;67165;50.256;10.978;2023-03-14T07:45:52;3.35;;;1.10;;
26574;SDS011;67165;50.256;10.978;2023-03-14T07:48:18;3.53;;;1.15;;
26574;SDS011;67165;50.256;10.978;2023-03-14T07:50:47;1.73;;;1.20;;
26574;SDS011;67165;50.256;10.978;2023-03-14T07:53:14;5.90;;;1.30;;
26574;SDS011;67165;50.256;10.978;2023-03-14T07:55:39;4.50;;;1.13;;
26574;SDS011;67165;50.256;10.978;2023-03-14T07:58:05;3.35;;;1.05;;
26574;SDS011;67165;50.256;10.978;2023-03-14T08:00:31;4.80;;;1.20;;
26574;SDS011;67165;50.256;10.978;2023-03-14T08:02:57;4.60;;;1.10;;
26574;SDS011;67165;50.256;10.978;2023-03-14T08:05:23;4.70;;;1.33;;
26574;SDS011;67165;50.256;10.978;2023-03-14T08:07:49;7.40;;;1.77;;
26574;SDS011;67165;50.256;10.978;2023-03-14T08:10:14;4.55;;;1.40;;
26574;SDS011;67165;50.256;10.978;2023-03-14T08:12:49;3.88;;;1.10;;
26574;SDS011;67165;50.256;10.978;2023-03-14T08:15:16;4.45;;;1.40;;
26574;SDS011;67165;50.256;10.978;2023-03-14T08:17:42;2.05;;;1.00;;
26574;SDS011;67165;50.256;10.978;2023-03-14T08:20:07;2.30;;;1.00;;
26574;SDS011;67165;50.256;10.978;2023-03-14T08:22:35;2.08;;;1.08;;
26574;SDS011;67165;50.256;10.978;2023-03-14T08:25:01;3.08;;;1.10;;
26574;SDS011;67165;50.256;10.978;2023-03-14T08:27:27;2.95;;;1.23;;
26574;SDS011;67165;50.256;10.978;2023-03-14T08:29:53;3.47;;;1.20;;
26574;SDS011;67165;50.256;10.978;2023-03-14T08:32:18;2.72;;;1.00;;
26574;SDS011;67165;50.256;10.978;2023-03-14T08:34:45;2.70;;;1.10;;
26574;SDS011;67165;50.256;10.978;2023-03-14T08:37:11;2.10;;;1.20;;
26574;SDS011;67165;50.256;10.978;2023-03-14T08:39:36;5.75;;;1.40;;
26574;SDS011;67165;50.256;10.978;2023-03-14T08:42:02;4.80;;;1.50;;
26574;SDS011;67165;50.256;10.978;2023-03-14T08:44:28;5.38;;;1.20;;
26574;SDS011;67165;50.256;10.978;2023-03-14T08:46:54;4.13;;;1.40;;
26574;SDS011;67165;50.256;10.978;2023-03-14T08:49:20;3.67;;;1.35;;
26574;SDS011;67165;50.256;10.978;2023-03-14T08:51:46;4.05;;;1.40;;
26574;SDS011;67165;50.256;10.978;2023-03-14T08:54:12;3.50;;;1.30;;
26574;SDS011;67165;50.256;10.978;2023-03-14T08:56:37;3.90;;;1.33;;
26574;SDS011;67165;50.256;10.978;2023-03-14T08:59:03;3.33;;;1.45;;
26574;SDS011;67165;50.256;10.978;2023-03-14T09:01:30;4.85;;;1.20;;
26574;SDS011;67165;50.256;10.978;2023-03-14T09:03:55;5.07;;;1.33;;
26574;SDS011;67165;50.256;10.978;2023-03-14T09:06:21;2.17;;;1.10;;
26574;SDS011;67165;50.256;10.978;2023-03-14T09:08:47;3.80;;;1.30;;
26574;SDS011;67165;50.256;10.978;2023-03-14T09:11:13;3.30;;;1.08;;
26574;SDS011;67165;50.256;10.978;2023-03-14T09:13:38;4.80;;;1.23;;
26574;SDS011;67165;50.256;10.978;2023-03-14T09:16:04;4.35;;;1.15;;
26574;SDS011;67165;50.256;10.978;2023-03-14T09:18:31;3.00;;;1.20;;
26574;SDS011;67165;50.256;10.978;2023-03-14T09:20:57;6.97;;;1.23;;
26574;SDS011;67165;50.256;10.978;2023-03-14T09:23:22;5.32;;;1.33;;
26574;SDS011;67165;50.256;10.978;2023-03-14T09:25:48;3.92;;;0.90;;
26574;SDS011;67165;50.256;10.978;2023-03-14T09:28:14;2.30;;;0.90;;
26574;SDS011;67165;50.256;10.978;2023-03-14T09:30:39;7.22;;;1.20;;
26574;SDS011;67165;50.256;10.978;2023-03-14T09:33:05;6.57;;;1.38;;
26574;SDS011;67165;50.256;10.978;2023-03-14T09:35:32;7.07;;;1.65;;
26574;SDS011;67165;50.256;10.978;2023-03-14T09:37:59;2.95;;;1.20;;
26574;SDS011;67165;50.256;10.978;2023-03-14T09:40:24;3.72;;;1.30;;
26574;SDS011;67165;50.256;10.978;2023-03-14T09:42:58;4.75;;;1.30;;
26574;SDS011;67165;50.256;10.978;2023-03-14T09:45:42;4.75;;;1.20;;
26574;SDS011;67165;50.256;10.978;2023-03-14T09:48:12;5.43;;;1.25;;
26574;SDS011;67165;50.256;10.978;2023-03-14T09:51:01;10.40;;;1.73;;
26574;SDS011;67165;50.256;10.978;2023-03-14T09:53:35;2.10;;;0.77;;
26574;SDS011;67165;50.256;10.978;2023-03-14T09:56:48;5.25;;;0.95;;
26574;SDS011;67165;50.256;10.978;2023-03-14T09:59:00;4.18;;;1.00;;
26574;SDS011;67165;50.256;10.978;2023-03-14T10:01:30;2.60;;;1.00;;
26574;SDS011;67165;50.256;10.978;2023-03-14T10:03:58;4.90;;;1.20;;
26574;SDS011;67165;50.256;10.978;2023-03-14T10:06:27;3.25;;;0.95;;
26574;SDS011;67165;50.256;10.978;2023-03-14T10:08:54;3.58;;;1.15;;
26574;SDS011;67165;50.256;10.978;2023-03-14T10:11:24;4.63;;;1.13;;
26574;SDS011;67165;50.256;10.978;2023-03-14T10:14:02;3.15;;;1.08;;
26574;SDS011;67165;50.256;10.978;2023-03-14T10:16:40;2.60;;;1.13;;
26574;SDS011;67165;50.256;10.978;2023-03-14T10:19:12;5.45;;;1.20;;
26574;SDS011;67165;50.256;10.978;2023-03-14T10:21:40;2.75;;;1.02;;
26574;SDS011;67165;50.256;10.978;2023-03-14T10:26:58;2.35;;;0.95;;
26574;SDS011;67165;50.256;10.978;2023-03-14T10:29:26;2.35;;;1.10;;
26574;SDS011;67165;50.256;10.978;2023-03-14T10:31:59;5.57;;;1.25;;
26574;SDS011;67165;50.256;10.978;2023-03-14T10:34:31;3.22;;;1.10;;
26574;SDS011;67165;50.256;10.978;2023-03-14T10:37:03;2.28;;;0.90;;
26574;SDS011;67165;50.256;10.978;2023-03-14T10:40:01;3.13;;;0.90;;
26574;SDS011;67165;50.256;10.978;2023-03-14T10:42:31;3.25;;;1.17;;
26574;SDS011;67165;50.256;10.978;2023-03-14T10:45:02;2.40;;;0.90;;
26574;SDS011;67165;50.256;10.978;2023-03-14T10:47:32;3.20;;;0.93;;
26574;SDS011;67165;50.256;10.978;2023-03-14T10:50:18;3.13;;;1.15;;
26574;SDS011;67165;50.256;10.978;2023-03-14T10:52:54;2.58;;;0.90;;
26574;SDS011;67165;50.256;10.978;2023-03-14T10:55:22;2.03;;;1.20;;
26574;SDS011;67165;50.256;10.978;2023-03-14T10:57:49;1.88;;;0.90;;
26574;SDS011;67165;50.256;10.978;2023-03-14T11:00:17;2.00;;;0.65;;
26574;SDS011;67165;50.256;10.978;2023-03-14T11:05:34;1.88;;;0.73;;
26574;SDS011;67165;50.256;10.978;2023-03-14T11:08:11;2.75;;;0.80;;
26574;SDS011;67165;50.256;10.978;2023-03-14T11:10:39;1.63;;;0.50;;
26574;SDS011;67165;50.256;10.978;2023-03-14T11:15:56;2.00;;;0.85;;
26574;SDS011;67165;50.256;10.978;2023-03-14T11:29:47;1.03;;;0.50;;
26574;SDS011;67165;50.256;10.978;2023-03-14T11:35:34;1.65;;;0.52;;
26574;SDS011;67165;50.256;10.978;2023-03-14T11:38:14;1.17;;;0.63;;
26574;SDS011;67165;50.256;10.978;2023-03-14T11:43:28;0.55;;;0.40;;
26574;SDS011;67165;50.256;10.978;2023-03-14T11:51:47;1.42;;;0.50;;
26574;SDS011;67165;50.256;10.978;2023-03-14T11:54:31;1.70;;;0.70;;
26574;SDS011;67165;50.256;10.978;2023-03-14T11:57:15;1.75;;;0.63;;
26574;SDS011;67165;50.256;10.978;2023-03-14T12:00:00;0.98;;;0.75;;
26574;SDS011;67165;50.256;10.978;2023-03-14T12:02:48;0.50;;;0.50;;
26574;SDS011;67165;50.256;10.978;2023-03-14T12:10:56;2.92;;;0.60;;
26574;SDS011;67165;50.256;10.978;2023-03-14T12:13:45;2.57;;;0.60;;
26574;SDS011;67165;50.256;10.978;2023-03-14T12:18:48;0.77;;;0.50;;
26574;SDS011;67165;50.256;10.978;2023-03-14T12:21:15;0.65;;;0.52;;
26574;SDS011;67165;50.256;10.978;2023-03-14T12:26:23;1.48;;;0.80;;
26574;SDS011;67165;50.256;10.978;2023-03-14T12:28:52;1.35;;;0.70;;
26574;SDS011;67165;50.256;10.978;2023-03-14T12:31:43;1.33;;;0.75;;
26574;SDS011;67165;50.256;10.978;2023-03-14T12:50:15;0.75;;;0.60;;
26574;SDS011;67165;50.256;10.978;2023-03-14T12:52:51;1.45;;;0.70;;
26574;SDS011;67165;50.256;10.978;2023-03-14T12:55:27;2.88;;;0.77;;
26574;SDS011;67165;50.256;10.978;2023-03-14T13:00:45;2.65;;;0.75;;
26574;SDS011;67165;50.256;10.978;2023-03-14T13:03:25;1.35;;;0.70;;
26574;SDS011;67165;50.256;10.978;2023-03-14T13:06:02;1.05;;;0.70;;
26574;SDS011;67165;50.256;10.978;2023-03-14T13:11:20;1.05;;;0.70;;
26574;SDS011;67165;50.256;10.978;2023-03-14T13:13:49;1.60;;;0.60;;
26574;SDS011;67165;50.256;10.978;2023-03-14T13:16:21;2.40;;;0.60;;
26574;SDS011;67165;50.256;10.978;2023-03-14T13:18:50;0.70;;;0.70;;
26574;SDS011;67165;50.256;10.978;2023-03-14T13:21:27;0.52;;;0.40;;
26574;SDS011;67165;50.256;10.978;2023-03-14T13:26:36;1.05;;;0.70;;
26574;SDS011;67165;50.256;10.978;2023-03-14T13:29:14;0.75;;;0.70;;
26574;SDS011;67165;50.256;10.978;2023-03-14T13:31:50;1.00;;;0.52;;
26574;SDS011;67165;50.256;10.978;2023-03-14T13:34:17;2.17;;;0.73;;
26574;SDS011;67165;50.256;10.978;2023-03-14T13:36:43;1.95;;;0.80;;
26574;SDS011;67165;50.256;10.978;2023-03-14T13:39:10;1.45;;;0.68;;
26574;SDS011;67165;50.256;10.978;2023-03-14T13:41:39;1.58;;;0.80;;
26574;SDS011;67165;50.256;10.978;2023-03-14T13:44:06;1.92;;;0.95;;
26574;SDS011;67165;50.256;10.978;2023-03-14T13:46:37;2.05;;;0.93;;
26574;SDS011;67165;50.256;10.978;2023-03-14T13:49:09;3.45;;;0.90;;
26574;SDS011;67165;50.256;10.978;2023-03-14T13:51:38;2.20;;;1.20;;
26574;SDS011;67165;50.256;10.978;2023-03-14T13:54:13;1.88;;;0.85;;
26574;SDS011;67165;50.256;10.978;2023-03-14T13:56:40;0.70;;;0.70;;
26574;SDS011;67165;50.256;10.978;2023-03-14T13:59:20;1.75;;;0.80;;
26574;SDS011;67165;50.256;10.978;2023-03-14T14:01:53;1.10;;;0.80;;
26574;SDS011;67165;50.256;10.978;2023-03-14T14:04:22;1.00;;;0.90;;
26574;SDS011;67165;50.256;10.978;2023-03-14T14:06:52;1.63;;;1.20;;
26574;SDS011;67165;50.256;10.978;2023-03-14T14:09:35;1.30;;;1.10;;
26574;SDS011;67165;50.256;10.978;2023-03-14T14:12:05;2.05;;;1.20;;
26574;SDS011;67165;50.256;10.978;2023-03-14T14:14:34;2.15;;;1.30;;
26574;SDS011;67165;50.256;10.978;2023-03-14T14:17:05;3.25;;;1.23;;
26574;SDS011;67165;50.256;10.978;2023-03-14T14:19:33;2.15;;;1.00;;
26574;SDS011;67165;50.256;10.978;2023-03-14T14:22:00;1.52;;;1.10;;
26574;SDS011;67165;50.256;10.978;2023-03-14T14:24:31;0.82;;;0.80;;
26574;SDS011;67165;50.256;10.978;2023-03-14T14:27:09;2.38;;;0.77;;
26574;SDS011;67165;50.256;10.978;2023-03-14T14:30:00;2.05;;;0.90;;
26574;SDS011;67165;50.256;10.978;2023-03-14T14:32:39;4.35;;;0.90;;
26574;SDS011;67165;50.256;10.978;2023-03-14T14:35:05;1.08;;;0.68;;
26574;SDS011;67165;50.256;10.978;2023-03-14T14:37:33;1.67;;;0.80;;
26574;SDS011;67165;50.256;10.978;2023-03-14T14:40:22;0.63;;;0.63;;
26574;SDS011;67165;50.256;10.978;2023-03-14T14:45:19;1.33;;;1.10;;
26574;SDS011;67165;50.256;10.978;2023-03-14T14:47:50;1.02;;;0.90;;
26574;SDS011;67165;50.256;10.978;2023-03-14T14:52:58;3.05;;;1.13;;
26574;SDS011;67165;50.256;10.978;2023-03-14T14:55:31;0.60;;;0.55;;
26574;SDS011;67165;50.256;10.978;2023-03-14T14:57:58;1.05;;;0.70;;
26574;SDS011;67165;50.256;10.978;2023-03-14T15:00:49;0.73;;;0.47;;
26574;SDS011;67165;50.256;10.978;2023-03-14T15:03:36;1.23;;;0.82;;
26574;SDS011;67165;50.256;10.978;2023-03-14T15:06:03;0.90;;;0.80;;
26574;SDS011;67165;50.256;10.978;2023-03-14T15:08:29;0.98;;;0.60;;
26574;SDS011;67165;50.256;10.978;2023-03-14T15:10:56;0.90;;;0.70;;
26574;SDS011;67165;50.256;10.978;2023-03-14T15:13:22;1.55;;;0.73;;
26574;SDS011;67165;50.256;10.978;2023-03-14T15:15:49;0.82;;;0.70;;
26574;SDS011;67165;50.256;10.978;2023-03-14T15:18:21;1.58;;;0.70;;
26574;SDS011;67165;50.256;10.978;2023-03-14T15:20:49;1.55;;;0.70;;
26574;SDS011;67165;50.256;10.978;2023-03-14T15:23:15;0.70;;;0.65;;
26574;SDS011;67165;50.256;10.978;2023-03-14T15:25:43;1.65;;;0.57;;
26574;SDS011;67165;50.256;10.978;2023-03-14T15:28:21;0.88;;;0.45;;
26574;SDS011;67165;50.256;10.978;2023-03-14T15:30:52;0.52;;;0.52;;
26574;SDS011;67165;50.256;10.978;2023-03-14T15:33:19;0.95;;;0.52;;
26574;SDS011;67165;50.256;10.978;2023-03-14T15:35:46;0.52;;;0.52;;
26574;SDS011;67165;50.256;10.978;2023-03-14T15:38:14;1.23;;;0.60;;
26574;SDS011;67165;50.256;10.978;2023-03-14T15:40:41;0.47;;;0.47;;
26574;SDS011;67165;50.256;10.978;2023-03-14T15:43:08;0.70;;;0.70;;
26574;SDS011;67165;50.256;10.978;2023-03-14T15:45:34;1.23;;;0.77;;
26574;SDS011;67165;50.256;10.978;2023-03-14T15:48:00;0.90;;;0.90;;
26574;SDS011;67165;50.256;10.978;2023-03-14T15:50:26;0.73;;;0.73;;
26574;SDS011;67165;50.256;10.978;2023-03-14T15:52:52;3.92;;;1.20;;
26574;SDS011;67165;50.256;10.978;2023-03-14T15:55:18;2.60;;;1.50;;
26574;SDS011;67165;50.256;10.978;2023-03-14T15:57:44;1.90;;;1.20;;
26574;SDS011;67165;50.256;10.978;2023-03-14T16:00:14;4.47;;;0.80;;